sensor_id;sensor_type;location;lat;lon;timestamp;temperature;humidity
36654;DHT22;22650;49.350;20.898;2023-06-22T00:00:52;18.40;99.90
36654;DHT22;22650;49.350;20.898;2023-06-22T00:03:26;18.40;99.90
36654;DHT22;22650;49.350;20.898;2023-06-22T00:06:00;18.40;99.90
36654;DHT22;22650;49.350;20.898;2023-06-22T00:08:34;18.40;99.90
36654;DHT22;22650;49.350;20.898;2023-06-22T00:11:09;18.40;99.90
36654;DHT22;22650;49.350;20.898;2023-06-22T00:13:44;18.40;99.90
36654;DHT22;22650;49.350;20.898;2023-06-22T00:16:17;18.30;99.90
36654;DHT22;22650;49.350;20.898;2023-06-22T00:18:51;18.40;99.90
36654;DHT22;22650;49.350;20.898;2023-06-22T00:21:28;18.30;99.90
36654;DHT22;22650;49.350;20.898;2023-06-22T00:24:03;18.30;99.90
36654;DHT22;22650;49.350;20.898;2023-06-22T00:26:39;18.30;99.90
36654;DHT22;22650;49.350;20.898;2023-06-22T00:29:15;18.30;99.90
36654;DHT22;22650;49.350;20.898;2023-06-22T00:31:49;18.30;99.90
36654;DHT22;22650;49.350;20.898;2023-06-22T00:34:23;18.30;99.90
36654;DHT22;22650;49.350;20.898;2023-06-22T00:36:57;18.20;99.90
36654;DHT22;22650;49.350;20.898;2023-06-22T00:39:32;18.30;99.90
36654;DHT22;22650;49.350;20.898;2023-06-22T00:42:08;18.20;99.90
36654;DHT22;22650;49.350;20.898;2023-06-22T00:44:42;18.30;99.90
36654;DHT22;22650;49.350;20.898;2023-06-22T00:47:17;18.20;99.90
36654;DHT22;22650;49.350;20.898;2023-06-22T00:49:52;18.20;99.90
36654;DHT22;22650;49.350;20.898;2023-06-22T00:52:27;18.20;99.90
36654;DHT22;22650;49.350;20.898;2023-06-22T00:55:03;18.20;99.90
36654;DHT22;22650;49.350;20.898;2023-06-22T00:57:40;18.10;99.90
36654;DHT22;22650;49.350;20.898;2023-06-22T01:00:15;18.10;99.90
36654;DHT22;22650;49.350;20.898;2023-06-22T01:02:52;18.10;99.90
36654;DHT22;22650;49.350;20.898;2023-06-22T01:05:26;18.00;99.90
36654;DHT22;22650;49.350;20.898;2023-06-22T01:08:12;18.00;99.90
36654;DHT22;22650;49.350;20.898;2023-06-22T01:10:51;18.00;99.90
36654;DHT22;22650;49.350;20.898;2023-06-22T01:13:31;18.00;99.90
36654;DHT22;22650;49.350;20.898;2023-06-22T01:16:10;18.00;99.90
36654;DHT22;22650;49.350;20.898;2023-06-22T01:18:48;18.00;99.90
36654;DHT22;22650;49.350;20.898;2023-06-22T01:21:27;18.00;99.90
36654;DHT22;22650;49.350;20.898;2023-06-22T01:24:14;18.00;99.90
36654;DHT22;22650;49.350;20.898;2023-06-22T01:27:00;18.00;99.90
36654;DHT22;22650;49.350;20.898;2023-06-22T01:29:39;18.00;99.90
36654;DHT22;22650;49.350;20.898;2023-06-22T01:32:15;18.00;99.90
36654;DHT22;22650;49.350;20.898;2023-06-22T01:34:49;18.00;99.90
36654;DHT22;22650;49.350;20.898;2023-06-22T01:37:23;18.00;99.90
36654;DHT22;22650;49.350;20.898;2023-06-22T01:39:58;18.00;99.90
36654;DHT22;22650;49.350;20.898;2023-06-22T01:42:32;18.00;99.90
36654;DHT22;22650;49.350;20.898;2023-06-22T01:45:10;18.00;99.90
36654;DHT22;22650;49.350;20.898;2023-06-22T01:47:44;18.00;99.90
36654;DHT22;22650;49.350;20.898;2023-06-22T01:50:18;18.00;99.90
36654;DHT22;22650;49.350;20.898;2023-06-22T01:52:52;18.00;99.90
36654;DHT22;22650;49.350;20.898;2023-06-22T01:55:26;17.90;99.90
36654;DHT22;22650;49.350;20.898;2023-06-22T01:58:00;17.90;99.90
36654;DHT22;22650;49.350;20.898;2023-06-22T02:00:37;17.90;99.90
36654;DHT22;22650;49.350;20.898;2023-06-22T02:03:14;17.90;99.90
36654;DHT22;22650;49.350;20.898;2023-06-22T02:05:54;17.90;99.90
36654;DHT22;22650;49.350;20.898;2023-06-22T02:08:32;17.90;99.90
36654;DHT22;22650;49.350;20.898;2023-06-22T02:11:09;17.90;99.90
36654;DHT22;22650;49.350;20.898;2023-06-22T02:13:43;17.90;99.90
36654;DHT22;22650;49.350;20.898;2023-06-22T02:16:19;17.90;99.90
36654;DHT22;22650;49.350;20.898;2023-06-22T02:18:53;17.90;99.90
36654;DHT22;22650;49.350;20.898;2023-06-22T02:21:27;17.90;99.90
36654;DHT22;22650;49.350;20.898;2023-06-22T02:24:01;17.90;99.90
36654;DHT22;22650;49.350;20.898;2023-06-22T02:26:35;17.90;99.90
36654;DHT22;22650;49.350;20.898;2023-06-22T02:29:10;17.90;99.90
36654;DHT22;22650;49.350;20.898;2023-06-22T02:31:46;17.90;99.90
36654;DHT22;22650;49.350;20.898;2023-06-22T02:34:20;17.90;99.90
36654;DHT22;22650;49.350;20.898;2023-06-22T02:36:56;17.90;99.90
36654;DHT22;22650;49.350;20.898;2023-06-22T02:39:31;17.80;99.90
36654;DHT22;22650;49.350;20.898;2023-06-22T02:42:04;17.80;99.90
36654;DHT22;22650;49.350;20.898;2023-06-22T02:44:38;17.80;99.90
36654;DHT22;22650;49.350;20.898;2023-06-22T02:47:14;17.80;99.90
36654;DHT22;22650;49.350;20.898;2023-06-22T02:49:47;17.80;99.90
36654;DHT22;22650;49.350;20.898;2023-06-22T02:52:21;17.80;99.90
36654;DHT22;22650;49.350;20.898;2023-06-22T02:54:55;17.80;99.90
36654;DHT22;22650;49.350;20.898;2023-06-22T02:57:29;17.80;99.90
36654;DHT22;22650;49.350;20.898;2023-06-22T03:00:05;17.80;99.90
36654;DHT22;22650;49.350;20.898;2023-06-22T03:02:52;17.80;99.90
36654;DHT22;22650;49.350;20.898;2023-06-22T03:05:26;17.70;99.90
36654;DHT22;22650;49.350;20.898;2023-06-22T03:08:02;17.80;99.90
36654;DHT22;22650;49.350;20.898;2023-06-22T03:10:38;17.80;99.90
36654;DHT22;22650;49.350;20.898;2023-06-22T03:13:12;17.80;99.90
36654;DHT22;22650;49.350;20.898;2023-06-22T03:15:45;17.80;99.90
36654;DHT22;22650;49.350;20.898;2023-06-22T03:18:21;17.80;99.90
36654;DHT22;22650;49.350;20.898;2023-06-22T03:20:55;17.90;99.90
36654;DHT22;22650;49.350;20.898;2023-06-22T03:23:29;17.90;99.90
36654;DHT22;22650;49.350;20.898;2023-06-22T03:26:03;17.90;99.90
36654;DHT22;22650;49.350;20.898;2023-06-22T03:28:37;17.90;99.90
36654;DHT22;22650;49.350;20.898;2023-06-22T03:31:12;17.90;99.90
36654;DHT22;22650;49.350;20.898;2023-06-22T03:33:48;17.90;99.90
36654;DHT22;22650;49.350;20.898;2023-06-22T03:36:22;17.90;99.90
36654;DHT22;22650;49.350;20.898;2023-06-22T03:38:56;17.90;99.90
36654;DHT22;22650;49.350;20.898;2023-06-22T03:41:29;17.90;99.90
36654;DHT22;22650;49.350;20.898;2023-06-22T03:44:03;17.90;99.90
36654;DHT22;22650;49.350;20.898;2023-06-22T03:46:37;17.90;99.90
36654;DHT22;22650;49.350;20.898;2023-06-22T03:49:13;18.00;99.90
36654;DHT22;22650;49.350;20.898;2023-06-22T03:51:46;18.00;99.90
36654;DHT22;22650;49.350;20.898;2023-06-22T03:54:20;17.90;99.90
36654;DHT22;22650;49.350;20.898;2023-06-22T03:56:54;18.00;99.90
36654;DHT22;22650;49.350;20.898;2023-06-22T03:59:28;18.00;99.90
36654;DHT22;22650;49.350;20.898;2023-06-22T04:02:02;18.00;99.90
36654;DHT22;22650;49.350;20.898;2023-06-22T04:04:37;18.00;99.90
36654;DHT22;22650;49.350;20.898;2023-06-22T04:07:11;18.00;99.90
36654;DHT22;22650;49.350;20.898;2023-06-22T04:09:45;18.00;99.90
36654;DHT22;22650;49.350;20.898;2023-06-22T04:12:19;18.00;99.90
36654;DHT22;22650;49.350;20.898;2023-06-22T04:14:53;18.00;99.90
36654;DHT22;22650;49.350;20.898;2023-06-22T04:17:27;18.00;99.90
36654;DHT22;22650;49.350;20.898;2023-06-22T04:20:02;18.00;99.90
36654;DHT22;22650;49.350;20.898;2023-06-22T04:22:37;18.10;99.90
36654;DHT22;22650;49.350;20.898;2023-06-22T04:25:10;18.10;99.90
36654;DHT22;22650;49.350;20.898;2023-06-22T04:27:44;18.10;99.90
36654;DHT22;22650;49.350;20.898;2023-06-22T04:30:18;18.10;99.90
36654;DHT22;22650;49.350;20.898;2023-06-22T04:32:52;18.10;99.90
36654;DHT22;22650;49.350;20.898;2023-06-22T04:35:31;18.10;99.90
36654;DHT22;22650;49.350;20.898;2023-06-22T04:38:06;18.10;99.90
36654;DHT22;22650;49.350;20.898;2023-06-22T04:40:39;18.10;99.90
36654;DHT22;22650;49.350;20.898;2023-06-22T04:43:13;18.10;99.90
36654;DHT22;22650;49.350;20.898;2023-06-22T04:45:47;18.10;99.90
36654;DHT22;22650;49.350;20.898;2023-06-22T04:48:25;18.20;99.90
36654;DHT22;22650;49.350;20.898;2023-06-22T04:51:06;18.20;99.90
36654;DHT22;22650;49.350;20.898;2023-06-22T04:53:40;18.20;99.90
36654;DHT22;22650;49.350;20.898;2023-06-22T04:56:14;18.20;99.90
36654;DHT22;22650;49.350;20.898;2023-06-22T04:58:50;18.30;99.90
36654;DHT22;22650;49.350;20.898;2023-06-22T05:01:24;18.30;99.90
36654;DHT22;22650;49.350;20.898;2023-06-22T05:03:57;18.40;99.90
36654;DHT22;22650;49.350;20.898;2023-06-22T05:06:35;18.40;99.90
36654;DHT22;22650;49.350;20.898;2023-06-22T05:09:12;18.50;99.90
36654;DHT22;22650;49.350;20.898;2023-06-22T05:11:45;18.50;99.90
36654;DHT22;22650;49.350;20.898;2023-06-22T05:14:19;18.50;99.90
36654;DHT22;22650;49.350;20.898;2023-06-22T05:16:53;18.60;99.90
36654;DHT22;22650;49.350;20.898;2023-06-22T05:19:30;18.70;99.90
36654;DHT22;22650;49.350;20.898;2023-06-22T05:22:10;18.70;99.90
36654;DHT22;22650;49.350;20.898;2023-06-22T05:24:45;18.70;99.90
36654;DHT22;22650;49.350;20.898;2023-06-22T05:27:19;18.70;99.90
36654;DHT22;22650;49.350;20.898;2023-06-22T05:29:52;18.80;99.90
36654;DHT22;22650;49.350;20.898;2023-06-22T05:32:26;18.90;99.90
36654;DHT22;22650;49.350;20.898;2023-06-22T05:35:00;18.90;99.90
36654;DHT22;22650;49.350;20.898;2023-06-22T05:37:35;19.00;99.90
36654;DHT22;22650;49.350;20.898;2023-06-22T05:40:10;19.00;99.90
36654;DHT22;22650;49.350;20.898;2023-06-22T05:42:44;19.10;99.90
36654;DHT22;22650;49.350;20.898;2023-06-22T05:45:18;19.10;99.90
36654;DHT22;22650;49.350;20.898;2023-06-22T05:47:51;19.20;99.90
36654;DHT22;22650;49.350;20.898;2023-06-22T05:50:25;19.20;99.90
36654;DHT22;22650;49.350;20.898;2023-06-22T05:53:00;19.30;99.90
36654;DHT22;22650;49.350;20.898;2023-06-22T05:55:34;19.40;99.90
36654;DHT22;22650;49.350;20.898;2023-06-22T05:58:08;19.40;99.90
36654;DHT22;22650;49.350;20.898;2023-06-22T06:00:42;19.50;99.90
36654;DHT22;22650;49.350;20.898;2023-06-22T06:03:16;19.50;99.90
36654;DHT22;22650;49.350;20.898;2023-06-22T06:05:50;19.60;99.90
36654;DHT22;22650;49.350;20.898;2023-06-22T06:08:25;19.70;99.90
36654;DHT22;22650;49.350;20.898;2023-06-22T06:10:59;19.80;99.90
36654;DHT22;22650;49.350;20.898;2023-06-22T06:13:32;19.90;99.90
36654;DHT22;22650;49.350;20.898;2023-06-22T06:16:06;19.90;99.90
36654;DHT22;22650;49.350;20.898;2023-06-22T06:18:40;20.00;99.90
36654;DHT22;22650;49.350;20.898;2023-06-22T06:21:13;20.10;99.90
36654;DHT22;22650;49.350;20.898;2023-06-22T06:23:49;20.20;99.90
36654;DHT22;22650;49.350;20.898;2023-06-22T06:26:22;20.30;99.90
36654;DHT22;22650;49.350;20.898;2023-06-22T06:29:00;20.30;99.90
36654;DHT22;22650;49.350;20.898;2023-06-22T06:31:34;20.50;99.90
36654;DHT22;22650;49.350;20.898;2023-06-22T06:34:08;20.60;99.90
36654;DHT22;22650;49.350;20.898;2023-06-22T06:36:42;20.70;99.90
36654;DHT22;22650;49.350;20.898;2023-06-22T06:39:18;20.80;99.90
36654;DHT22;22650;49.350;20.898;2023-06-22T06:41:53;20.90;99.90
36654;DHT22;22650;49.350;20.898;2023-06-22T06:44:28;21.10;99.90
36654;DHT22;22650;49.350;20.898;2023-06-22T06:47:03;21.20;99.90
36654;DHT22;22650;49.350;20.898;2023-06-22T06:49:37;21.30;99.90
36654;DHT22;22650;49.350;20.898;2023-06-22T06:52:11;21.50;99.90
36654;DHT22;22650;49.350;20.898;2023-06-22T06:54:46;21.60;99.90
36654;DHT22;22650;49.350;20.898;2023-06-22T06:57:20;21.80;99.90
36654;DHT22;22650;49.350;20.898;2023-06-22T06:59:54;21.90;99.90
36654;DHT22;22650;49.350;20.898;2023-06-22T07:02:29;22.10;99.90
36654;DHT22;22650;49.350;20.898;2023-06-22T07:05:03;22.20;99.90
36654;DHT22;22650;49.350;20.898;2023-06-22T07:07:37;22.40;99.90
36654;DHT22;22650;49.350;20.898;2023-06-22T07:10:13;22.60;99.90
36654;DHT22;22650;49.350;20.898;2023-06-22T07:12:47;22.80;99.90
36654;DHT22;22650;49.350;20.898;2023-06-22T07:15:21;23.00;99.90
36654;DHT22;22650;49.350;20.898;2023-06-22T07:17:55;23.10;99.90
36654;DHT22;22650;49.350;20.898;2023-06-22T07:20:29;23.30;99.90
36654;DHT22;22650;49.350;20.898;2023-06-22T07:23:03;23.50;99.90
36654;DHT22;22650;49.350;20.898;2023-06-22T07:25:38;23.70;99.90
36654;DHT22;22650;49.350;20.898;2023-06-22T07:28:12;24.00;99.90
36654;DHT22;22650;49.350;20.898;2023-06-22T07:30:46;24.20;99.90
36654;DHT22;22650;49.350;20.898;2023-06-22T07:33:20;24.40;99.90
36654;DHT22;22650;49.350;20.898;2023-06-22T07:35:53;24.60;99.90
36654;DHT22;22650;49.350;20.898;2023-06-22T07:38:27;24.80;99.90
36654;DHT22;22650;49.350;20.898;2023-06-22T07:41:02;25.00;99.90
36654;DHT22;22650;49.350;20.898;2023-06-22T07:43:37;25.20;99.90
36654;DHT22;22650;49.350;20.898;2023-06-22T07:46:11;25.40;99.90
36654;DHT22;22650;49.350;20.898;2023-06-22T07:48:45;25.70;99.90
36654;DHT22;22650;49.350;20.898;2023-06-22T07:51:18;25.90;99.90
36654;DHT22;22650;49.350;20.898;2023-06-22T07:53:52;26.20;99.90
36654;DHT22;22650;49.350;20.898;2023-06-22T07:56:27;26.40;99.90
36654;DHT22;22650;49.350;20.898;2023-06-22T07:59:01;26.70;99.90
36654;DHT22;22650;49.350;20.898;2023-06-22T08:01:36;26.90;99.90
36654;DHT22;22650;49.350;20.898;2023-06-22T08:04:09;27.10;99.90
36654;DHT22;22650;49.350;20.898;2023-06-22T08:06:43;27.20;99.90
36654;DHT22;22650;49.350;20.898;2023-06-22T08:09:17;27.40;99.90
36654;DHT22;22650;49.350;20.898;2023-06-22T08:11:52;27.50;99.90
36654;DHT22;22650;49.350;20.898;2023-06-22T08:14:26;27.80;99.90
36654;DHT22;22650;49.350;20.898;2023-06-22T08:17:01;28.00;99.90
36654;DHT22;22650;49.350;20.898;2023-06-22T08:19:35;28.20;99.90
36654;DHT22;22650;49.350;20.898;2023-06-22T08:22:10;28.40;99.90
36654;DHT22;22650;49.350;20.898;2023-06-22T08:24:43;28.70;99.90
36654;DHT22;22650;49.350;20.898;2023-06-22T08:27:18;28.90;99.90
36654;DHT22;22650;49.350;20.898;2023-06-22T08:29:53;29.10;99.90
36654;DHT22;22650;49.350;20.898;2023-06-22T08:32:30;29.40;99.90
36654;DHT22;22650;49.350;20.898;2023-06-22T08:35:06;29.60;99.90
36654;DHT22;22650;49.350;20.898;2023-06-22T08:37:40;29.90;99.90
36654;DHT22;22650;49.350;20.898;2023-06-22T08:40:14;30.20;99.90
36654;DHT22;22650;49.350;20.898;2023-06-22T08:42:49;30.40;99.90
36654;DHT22;22650;49.350;20.898;2023-06-22T08:45:23;30.70;99.90
36654;DHT22;22650;49.350;20.898;2023-06-22T08:47:58;30.90;99.90
36654;DHT22;22650;49.350;20.898;2023-06-22T08:50:32;31.10;99.90
36654;DHT22;22650;49.350;20.898;2023-06-22T08:53:05;31.20;99.90
36654;DHT22;22650;49.350;20.898;2023-06-22T08:55:39;31.20;99.90
36654;DHT22;22650;49.350;20.898;2023-06-22T08:58:14;31.30;99.90
36654;DHT22;22650;49.350;20.898;2023-06-22T09:00:48;31.50;99.90
36654;DHT22;22650;49.350;20.898;2023-06-22T09:03:23;31.70;99.90
36654;DHT22;22650;49.350;20.898;2023-06-22T09:05:59;31.90;99.90
36654;DHT22;22650;49.350;20.898;2023-06-22T09:08:35;32.00;99.90
36654;DHT22;22650;49.350;20.898;2023-06-22T09:11:09;32.10;99.70
36654;DHT22;22650;49.350;20.898;2023-06-22T09:13:44;32.30;99.90
36654;DHT22;22650;49.350;20.898;2023-06-22T09:16:18;32.50;99.90
36654;DHT22;22650;49.350;20.898;2023-06-22T09:18:52;32.50;98.70
36654;DHT22;22650;49.350;20.898;2023-06-22T09:21:26;32.60;99.30
36654;DHT22;22650;49.350;20.898;2023-06-22T09:24:00;32.60;97.50
36654;DHT22;22650;49.350;20.898;2023-06-22T09:26:33;32.60;94.40
36654;DHT22;22650;49.350;20.898;2023-06-22T09:29:08;32.60;94.10
36654;DHT22;22650;49.350;20.898;2023-06-22T09:31:42;32.60;98.30
36654;DHT22;22650;49.350;20.898;2023-06-22T09:34:17;32.90;99.90
36654;DHT22;22650;49.350;20.898;2023-06-22T09:36:52;33.10;97.60
36654;DHT22;22650;49.350;20.898;2023-06-22T09:39:26;33.30;97.10
36654;DHT22;22650;49.350;20.898;2023-06-22T09:42:00;33.40;95.20
36654;DHT22;22650;49.350;20.898;2023-06-22T09:44:35;33.40;95.30
36654;DHT22;22650;49.350;20.898;2023-06-22T09:47:08;33.50;94.60
36654;DHT22;22650;49.350;20.898;2023-06-22T09:49:42;33.60;96.40
36654;DHT22;22650;49.350;20.898;2023-06-22T09:55:33;33.70;94.40
36654;DHT22;22650;49.350;20.898;2023-06-22T09:58:08;33.70;92.70
36654;DHT22;22650;49.350;20.898;2023-06-22T10:00:43;33.70;91.50
36654;DHT22;22650;49.350;20.898;2023-06-22T10:03:17;33.70;90.40
36654;DHT22;22650;49.350;20.898;2023-06-22T10:05:51;33.80;91.60
36654;DHT22;22650;49.350;20.898;2023-06-22T10:08:24;33.60;86.70
36654;DHT22;22650;49.350;20.898;2023-06-22T10:10:58;33.20;85.20
36654;DHT22;22650;49.350;20.898;2023-06-22T10:13:35;32.90;89.50
36654;DHT22;22650;49.350;20.898;2023-06-22T10:16:10;32.70;92.20
36654;DHT22;22650;49.350;20.898;2023-06-22T10:18:44;32.60;94.00
36654;DHT22;22650;49.350;20.898;2023-06-22T10:21:17;32.50;95.00
36654;DHT22;22650;49.350;20.898;2023-06-22T10:23:51;32.50;94.60
36654;DHT22;22650;49.350;20.898;2023-06-22T10:26:24;32.40;94.80
36654;DHT22;22650;49.350;20.898;2023-06-22T10:29:03;32.30;96.30
36654;DHT22;22650;49.350;20.898;2023-06-22T10:31:41;32.20;97.00
36654;DHT22;22650;49.350;20.898;2023-06-22T10:34:15;32.10;94.10
36654;DHT22;22650;49.350;20.898;2023-06-22T10:36:48;31.90;95.70
36654;DHT22;22650;49.350;20.898;2023-06-22T10:39:22;31.70;99.90
36654;DHT22;22650;49.350;20.898;2023-06-22T10:41:55;31.60;99.90
36654;DHT22;22650;49.350;20.898;2023-06-22T10:44:29;31.70;99.90
36654;DHT22;22650;49.350;20.898;2023-06-22T10:47:05;31.70;99.90
36654;DHT22;22650;49.350;20.898;2023-06-22T10:49:39;31.60;99.50
36654;DHT22;22650;49.350;20.898;2023-06-22T10:52:12;31.50;99.90
36654;DHT22;22650;49.350;20.898;2023-06-22T10:54:46;31.50;99.90
36654;DHT22;22650;49.350;20.898;2023-06-22T10:57:21;31.40;99.90
36654;DHT22;22650;49.350;20.898;2023-06-22T10:59:54;31.40;99.90
36654;DHT22;22650;49.350;20.898;2023-06-22T11:02:29;31.30;99.90
36654;DHT22;22650;49.350;20.898;2023-06-22T11:05:04;31.20;99.70
36654;DHT22;22650;49.350;20.898;2023-06-22T11:07:41;31.10;99.90
36654;DHT22;22650;49.350;20.898;2023-06-22T11:10:15;31.00;99.90
36654;DHT22;22650;49.350;20.898;2023-06-22T11:12:49;30.80;99.90
36654;DHT22;22650;49.350;20.898;2023-06-22T11:15:22;30.80;99.90
36654;DHT22;22650;49.350;20.898;2023-06-22T11:17:57;30.80;99.90
36654;DHT22;22650;49.350;20.898;2023-06-22T11:20:31;30.80;99.90
36654;DHT22;22650;49.350;20.898;2023-06-22T11:23:06;30.80;99.90
36654;DHT22;22650;49.350;20.898;2023-06-22T11:25:41;30.80;99.90
36654;DHT22;22650;49.350;20.898;2023-06-22T11:28:15;30.80;99.90
36654;DHT22;22650;49.350;20.898;2023-06-22T11:30:49;30.70;99.90
36654;DHT22;22650;49.350;20.898;2023-06-22T11:33:24;30.60;99.90
36654;DHT22;22650;49.350;20.898;2023-06-22T11:35:57;30.60;99.90
36654;DHT22;22650;49.350;20.898;2023-06-22T11:38:32;30.50;99.90
36654;DHT22;22650;49.350;20.898;2023-06-22T11:41:06;30.50;99.90
36654;DHT22;22650;49.350;20.898;2023-06-22T11:43:39;30.50;99.90
36654;DHT22;22650;49.350;20.898;2023-06-22T11:46:13;30.40;99.90
36654;DHT22;22650;49.350;20.898;2023-06-22T11:48:48;30.40;99.90
36654;DHT22;22650;49.350;20.898;2023-06-22T11:51:22;30.40;99.90
36654;DHT22;22650;49.350;20.898;2023-06-22T11:53:55;30.60;99.90
36654;DHT22;22650;49.350;20.898;2023-06-22T11:56:29;30.80;99.90
36654;DHT22;22650;49.350;20.898;2023-06-22T11:59:03;31.00;99.90
36654;DHT22;22650;49.350;20.898;2023-06-22T12:01:37;31.20;99.90
36654;DHT22;22650;49.350;20.898;2023-06-22T12:04:12;31.30;99.90
36654;DHT22;22650;49.350;20.898;2023-06-22T12:06:46;31.50;99.90
36654;DHT22;22650;49.350;20.898;2023-06-22T12:09:19;31.60;99.90
36654;DHT22;22650;49.350;20.898;2023-06-22T12:11:53;31.80;99.90
36654;DHT22;22650;49.350;20.898;2023-06-22T12:14:27;32.00;97.40
36654;DHT22;22650;49.350;20.898;2023-06-22T12:17:03;32.20;98.20
36654;DHT22;22650;49.350;20.898;2023-06-22T12:19:38;32.40;95.60
36654;DHT22;22650;49.350;20.898;2023-06-22T12:22:11;32.60;92.40
36654;DHT22;22650;49.350;20.898;2023-06-22T12:24:45;32.80;93.10
36654;DHT22;22650;49.350;20.898;2023-06-22T12:27:19;33.00;94.00
36654;DHT22;22650;49.350;20.898;2023-06-22T12:29:53;33.30;93.10
36654;DHT22;22650;49.350;20.898;2023-06-22T12:32:26;33.50;93.50
36654;DHT22;22650;49.350;20.898;2023-06-22T12:35:01;33.70;92.20
36654;DHT22;22650;49.350;20.898;2023-06-22T12:37:35;33.70;89.60
36654;DHT22;22650;49.350;20.898;2023-06-22T12:40:10;33.50;87.70
36654;DHT22;22650;49.350;20.898;2023-06-22T12:42:44;33.50;88.60
36654;DHT22;22650;49.350;20.898;2023-06-22T12:45:18;33.40;88.50
36654;DHT22;22650;49.350;20.898;2023-06-22T12:47:53;33.40;88.20
36654;DHT22;22650;49.350;20.898;2023-06-22T12:50:29;33.30;87.30
36654;DHT22;22650;49.350;20.898;2023-06-22T12:53:03;33.30;88.30
36654;DHT22;22650;49.350;20.898;2023-06-22T12:55:38;33.20;89.00
36654;DHT22;22650;49.350;20.898;2023-06-22T12:58:12;33.00;89.10
36654;DHT22;22650;49.350;20.898;2023-06-22T13:00:45;32.90;90.20
36654;DHT22;22650;49.350;20.898;2023-06-22T13:03:19;32.80;90.60
36654;DHT22;22650;49.350;20.898;2023-06-22T13:05:54;32.80;89.70
36654;DHT22;22650;49.350;20.898;2023-06-22T13:08:28;32.70;88.70
36654;DHT22;22650;49.350;20.898;2023-06-22T13:11:21;32.70;90.40
36654;DHT22;22650;49.350;20.898;2023-06-22T13:13:55;32.50;90.90
36654;DHT22;22650;49.350;20.898;2023-06-22T13:16:29;32.50;91.70
36654;DHT22;22650;49.350;20.898;2023-06-22T13:19:03;32.50;92.90
36654;DHT22;22650;49.350;20.898;2023-06-22T13:21:38;32.40;92.10
36654;DHT22;22650;49.350;20.898;2023-06-22T13:24:12;32.50;92.20
36654;DHT22;22650;49.350;20.898;2023-06-22T13:26:45;32.60;92.30
36654;DHT22;22650;49.350;20.898;2023-06-22T13:29:19;32.70;90.60
36654;DHT22;22650;49.350;20.898;2023-06-22T13:31:53;32.70;91.20
36654;DHT22;22650;49.350;20.898;2023-06-22T13:34:29;32.70;92.80
36654;DHT22;22650;49.350;20.898;2023-06-22T13:37:05;33.00;94.70
36654;DHT22;22650;49.350;20.898;2023-06-22T13:39:39;33.10;94.00
36654;DHT22;22650;49.350;20.898;2023-06-22T13:42:13;33.10;93.40
36654;DHT22;22650;49.350;20.898;2023-06-22T13:44:46;33.30;92.80
36654;DHT22;22650;49.350;20.898;2023-06-22T13:47:20;33.30;91.40
36654;DHT22;22650;49.350;20.898;2023-06-22T13:49:54;33.30;90.70
36654;DHT22;22650;49.350;20.898;2023-06-22T13:52:29;33.40;91.10
36654;DHT22;22650;49.350;20.898;2023-06-22T13:55:03;33.60;91.00
36654;DHT22;22650;49.350;20.898;2023-06-22T13:57:38;33.70;91.30
36654;DHT22;22650;49.350;20.898;2023-06-22T14:00:12;33.90;90.00
36654;DHT22;22650;49.350;20.898;2023-06-22T14:02:47;34.10;88.30
36654;DHT22;22650;49.350;20.898;2023-06-22T14:05:21;34.20;86.30
36654;DHT22;22650;49.350;20.898;2023-06-22T14:07:56;34.30;84.80
36654;DHT22;22650;49.350;20.898;2023-06-22T14:10:30;34.40;86.70
36654;DHT22;22650;49.350;20.898;2023-06-22T14:13:03;34.50;89.40
36654;DHT22;22650;49.350;20.898;2023-06-22T14:15:38;34.70;86.80
36654;DHT22;22650;49.350;20.898;2023-06-22T14:18:11;34.80;83.20
36654;DHT22;22650;49.350;20.898;2023-06-22T14:20:46;34.90;84.90
36654;DHT22;22650;49.350;20.898;2023-06-22T14:23:21;35.00;84.30
36654;DHT22;22650;49.350;20.898;2023-06-22T14:25:55;35.00;82.10
36654;DHT22;22650;49.350;20.898;2023-06-22T14:28:29;35.00;81.90
36654;DHT22;22650;49.350;20.898;2023-06-22T14:31:02;34.90;81.30
36654;DHT22;22650;49.350;20.898;2023-06-22T14:33:36;34.70;79.90
36654;DHT22;22650;49.350;20.898;2023-06-22T14:36:10;34.60;79.10
36654;DHT22;22650;49.350;20.898;2023-06-22T14:38:45;34.40;79.80
36654;DHT22;22650;49.350;20.898;2023-06-22T14:41:19;34.30;78.40
36654;DHT22;22650;49.350;20.898;2023-06-22T14:43:53;34.20;80.00
36654;DHT22;22650;49.350;20.898;2023-06-22T14:46:27;34.00;79.40
36654;DHT22;22650;49.350;20.898;2023-06-22T14:49:01;33.80;80.10
36654;DHT22;22650;49.350;20.898;2023-06-22T14:51:34;33.60;81.80
36654;DHT22;22650;49.350;20.898;2023-06-22T14:54:09;33.50;81.60
36654;DHT22;22650;49.350;20.898;2023-06-22T14:56:43;33.30;83.20
36654;DHT22;22650;49.350;20.898;2023-06-22T14:59:17;33.20;84.50
36654;DHT22;22650;49.350;20.898;2023-06-22T15:01:50;33.10;85.00
36654;DHT22;22650;49.350;20.898;2023-06-22T15:04:24;32.90;84.70
36654;DHT22;22650;49.350;20.898;2023-06-22T15:07:04;32.80;86.00
36654;DHT22;22650;49.350;20.898;2023-06-22T15:09:41;32.70;87.10
36654;DHT22;22650;49.350;20.898;2023-06-22T15:12:17;32.50;88.60
36654;DHT22;22650;49.350;20.898;2023-06-22T15:14:51;32.30;88.40
36654;DHT22;22650;49.350;20.898;2023-06-22T15:17:24;32.20;89.30
36654;DHT22;22650;49.350;20.898;2023-06-22T15:20:02;32.10;90.60
36654;DHT22;22650;49.350;20.898;2023-06-22T15:22:37;31.90;90.80
36654;DHT22;22650;49.350;20.898;2023-06-22T15:25:12;31.80;91.10
36654;DHT22;22650;49.350;20.898;2023-06-22T15:27:46;31.60;91.60
36654;DHT22;22650;49.350;20.898;2023-06-22T15:30:20;31.50;92.20
36654;DHT22;22650;49.350;20.898;2023-06-22T15:32:54;31.40;92.90
36654;DHT22;22650;49.350;20.898;2023-06-22T15:35:27;31.30;93.30
36654;DHT22;22650;49.350;20.898;2023-06-22T15:38:01;31.20;93.80
36654;DHT22;22650;49.350;20.898;2023-06-22T15:40:36;31.10;95.10
36654;DHT22;22650;49.350;20.898;2023-06-22T15:43:10;31.00;95.90
36654;DHT22;22650;49.350;20.898;2023-06-22T15:45:45;30.80;95.90
36654;DHT22;22650;49.350;20.898;2023-06-22T15:48:20;30.70;97.40
36654;DHT22;22650;49.350;20.898;2023-06-22T15:50:54;30.60;99.50
36654;DHT22;22650;49.350;20.898;2023-06-22T15:53:27;30.50;99.90
36654;DHT22;22650;49.350;20.898;2023-06-22T15:56:03;30.40;99.90
36654;DHT22;22650;49.350;20.898;2023-06-22T15:58:36;30.30;99.90
36654;DHT22;22650;49.350;20.898;2023-06-22T16:01:10;30.30;99.90
36654;DHT22;22650;49.350;20.898;2023-06-22T16:03:44;30.20;99.90